createdAt,value
2023-03-21T00:03:15.686Z,1.40
2023-03-21T00:07:14.725Z,1.21
2023-03-21T00:11:14.716Z,1.47
2023-03-21T00:15:14.619Z,0.98
2023-03-21T00:19:14.713Z,1.84
2023-03-21T00:23:14.584Z,1.06
2023-03-21T00:31:15.538Z,1.40
2023-03-21T00:35:51.671Z,1.38
2023-03-21T00:39:15.647Z,1.64
2023-03-21T00:43:14.698Z,1.39
2023-03-21T00:47:14.906Z,1.27
2023-03-21T00:51:14.845Z,1.65
2023-03-21T00:55:14.753Z,1.32
2023-03-21T00:59:14.806Z,1.01
2023-03-21T01:03:24.599Z,1.22
2023-03-21T01:07:15.857Z,1.08
2023-03-21T01:11:15.434Z,1.33
2023-03-21T01:15:14.915Z,1.43
2023-03-21T01:19:25.107Z,1.17
2023-03-21T01:23:15.991Z,1.54
2023-03-21T01:27:15.084Z,1.40
2023-03-21T01:31:15.420Z,1.17
2023-03-21T01:35:15.490Z,1.49
2023-03-21T01:39:15.632Z,1.28
2023-03-21T01:43:15.911Z,1.43
2023-03-21T01:47:15.971Z,1.38
2023-03-21T01:51:16.058Z,1.34
2023-03-21T01:55:16.268Z,1.47
2023-03-21T01:59:16.552Z,1.31
2023-03-21T02:03:26.263Z,1.45
2023-03-21T02:07:17.410Z,1.39
2023-03-21T02:11:16.434Z,1.26
2023-03-21T02:15:16.541Z,1.32
2023-03-21T02:19:20.099Z,1.58
2023-03-21T02:23:17.622Z,1.51
2023-03-21T02:27:16.612Z,1.26
2023-03-21T02:31:16.618Z,1.67
2023-03-21T02:35:16.516Z,1.73
2023-03-21T02:39:16.544Z,1.72
2023-03-21T02:43:23.076Z,1.32
2023-03-21T02:47:17.520Z,1.64
2023-03-21T02:51:16.365Z,1.52
2023-03-21T02:55:16.317Z,1.43
2023-03-21T02:59:16.351Z,1.25
2023-03-21T03:03:28.007Z,1.27
2023-03-21T03:07:17.231Z,1.42
2023-03-21T03:11:16.182Z,1.52
2023-03-21T03:15:16.153Z,1.35
2023-03-21T03:19:16.127Z,1.77
2023-03-21T03:23:16.094Z,1.19
2023-03-21T03:27:16.013Z,1.05
2023-03-21T03:31:16.470Z,1.22
2023-03-21T03:35:15.951Z,1.37
2023-03-21T03:39:15.945Z,1.27
2023-03-21T03:43:15.895Z,1.65
2023-03-21T03:47:29.828Z,1.39
2023-03-21T03:51:16.863Z,1.45
2023-03-21T03:55:15.793Z,1.25
2023-03-21T03:59:15.847Z,1.30
2023-03-21T04:03:15.789Z,1.36
2023-03-21T04:07:15.896Z,1.51
2023-03-21T04:11:15.679Z,1.42
2023-03-21T04:15:15.671Z,1.61
2023-03-21T04:19:15.604Z,1.50
2023-03-21T04:23:15.579Z,1.79
2023-03-21T04:27:15.559Z,1.48
2023-03-21T04:31:25.434Z,1.56
2023-03-21T04:35:16.594Z,1.44
2023-03-21T04:39:15.573Z,1.87
2023-03-21T04:43:15.470Z,1.51
2023-03-21T04:47:15.452Z,1.33
2023-03-21T04:51:15.385Z,1.50
2023-03-21T04:55:15.380Z,1.15
2023-03-21T04:59:15.332Z,1.38
2023-03-21T05:03:15.297Z,1.32
2023-03-21T05:07:15.274Z,1.49
2023-03-21T05:11:15.393Z,1.37
2023-03-21T05:15:15.207Z,1.52
2023-03-21T05:19:15.158Z,1.47
2023-03-21T05:23:15.114Z,1.57
2023-03-21T05:27:15.077Z,1.22
2023-03-21T05:31:15.232Z,1.92
2023-03-21T05:35:15.070Z,1.36
2023-03-21T05:39:15.519Z,1.56
2023-03-21T05:43:14.919Z,1.60
2023-03-21T05:47:15.098Z,1.86
2023-03-21T05:51:15.266Z,1.69
2023-03-21T05:55:15.444Z,1.00
2023-03-21T05:59:16.464Z,1.92
2023-03-21T06:03:15.650Z,1.63
2023-03-21T06:07:16.438Z,1.41
2023-03-21T06:11:15.907Z,1.30
2023-03-21T06:15:15.915Z,1.90
2023-03-21T06:19:16.120Z,1.34
2023-03-21T06:23:16.109Z,1.55
2023-03-21T06:27:16.352Z,1.85
2023-03-21T06:31:20.995Z,2.10
2023-03-21T06:35:16.099Z,1.81
2023-03-21T06:39:16.055Z,2.15
2023-03-21T06:43:15.985Z,2.55
2023-03-21T06:47:15.998Z,2.97
2023-03-21T06:51:15.923Z,2.98
2023-03-21T06:55:16.663Z,3.59
2023-03-21T06:59:16.945Z,3.17
2023-03-21T07:03:17.039Z,3.36
2023-03-21T07:07:17.215Z,3.86
2023-03-21T07:11:16.658Z,3.34
2023-03-21T07:15:16.744Z,3.03
2023-03-21T07:19:16.850Z,3.19
2023-03-21T07:23:16.838Z,3.21
2023-03-21T07:27:16.902Z,3.11
2023-03-21T07:31:16.966Z,3.16
2023-03-21T07:35:16.847Z,3.23
2023-03-21T07:39:16.822Z,4.13
2023-03-21T07:43:16.841Z,5.29
2023-03-21T07:47:16.762Z,4.50
2023-03-21T07:51:16.745Z,4.31
2023-03-21T07:55:16.759Z,3.66
2023-03-21T07:59:16.626Z,4.40
2023-03-21T08:03:16.615Z,4.52
2023-03-21T08:07:17.500Z,3.98
2023-03-21T08:11:18.586Z,4.19
2023-03-21T08:15:16.672Z,4.63
2023-03-21T08:19:16.633Z,4.51
2023-03-21T08:23:16.611Z,4.65
2023-03-21T08:27:16.596Z,4.31
2023-03-21T08:31:16.864Z,5.08
2023-03-21T08:35:16.633Z,4.88
2023-03-21T08:39:16.584Z,6.10
2023-03-21T08:43:16.642Z,5.25
2023-03-21T08:47:16.433Z,6.10
2023-03-21T08:51:16.366Z,5.73
2023-03-21T08:55:17.895Z,5.63
2023-03-21T08:59:16.646Z,5.28
2023-03-21T09:03:16.877Z,5.90
2023-03-21T09:07:16.328Z,5.63
2023-03-21T09:11:16.139Z,4.83
2023-03-21T09:15:16.348Z,4.93
2023-03-21T09:19:16.998Z,4.86
2023-03-21T09:23:16.339Z,5.54
2023-03-21T09:27:16.285Z,5.91
2023-03-21T09:31:17.214Z,4.72
2023-03-21T09:35:16.259Z,5.83
2023-03-21T09:39:22.945Z,5.88
2023-03-21T09:43:17.063Z,5.15
2023-03-21T09:47:16.220Z,4.06
2023-03-21T09:51:16.195Z,3.74
2023-03-21T09:55:16.149Z,4.20
2023-03-21T09:59:16.120Z,3.80
2023-03-21T10:03:16.061Z,2.71
2023-03-21T10:07:17.018Z,2.95
2023-03-21T10:11:15.966Z,2.91
2023-03-21T10:15:15.939Z,2.76
2023-03-21T10:19:15.957Z,2.55
2023-03-21T10:23:15.949Z,2.62
2023-03-21T10:27:16.219Z,2.75
2023-03-21T10:31:16.709Z,2.30
2023-03-21T10:35:16.307Z,2.56
2023-03-21T10:39:16.308Z,2.06
2023-03-21T10:43:16.293Z,2.98
2023-03-21T10:47:16.343Z,2.80
2023-03-21T10:51:16.318Z,2.78
2023-03-21T10:55:16.184Z,2.88
2023-03-21T10:59:16.134Z,2.24
2023-03-21T11:03:16.041Z,2.21
2023-03-21T11:07:15.967Z,2.44
2023-03-21T11:11:18.269Z,2.10
2023-03-21T11:15:15.936Z,1.91
2023-03-21T11:19:15.835Z,1.80
2023-03-21T11:23:15.882Z,1.94
2023-03-21T11:27:15.798Z,2.81
2023-03-21T11:31:15.842Z,2.94
2023-03-21T11:35:17.286Z,4.10
2023-03-21T11:39:16.085Z,4.19
2023-03-21T11:43:15.908Z,3.28
2023-03-21T11:47:15.983Z,2.98
2023-03-21T11:51:15.975Z,3.71
2023-03-21T11:55:15.972Z,3.86
2023-03-21T11:59:15.873Z,3.48
2023-03-21T12:03:15.891Z,3.02
2023-03-21T12:07:15.840Z,2.93
2023-03-21T12:11:15.776Z,4.19
2023-03-21T12:15:15.736Z,3.47
2023-03-21T12:19:15.783Z,3.59
2023-03-21T12:23:15.759Z,5.15
2023-03-21T12:27:15.625Z,3.56
2023-03-21T12:31:17.857Z,3.49
2023-03-21T12:35:15.612Z,3.57
2023-03-21T12:39:15.570Z,3.43
2023-03-21T12:43:15.648Z,3.87
2023-03-21T12:47:15.736Z,3.34
2023-03-21T12:51:15.902Z,2.33
2023-03-21T12:55:15.985Z,2.68
2023-03-21T12:59:16.635Z,2.46
2023-03-21T13:03:16.117Z,2.94
2023-03-21T13:11:35.760Z,3.18
2023-03-21T13:15:35.309Z,2.75
2023-03-21T13:19:35.445Z,2.61
2023-03-21T13:23:37.741Z,3.49
2023-03-21T13:27:35.724Z,3.99
2023-03-21T13:31:50.658Z,5.08
2023-03-21T13:35:37.352Z,4.79
2023-03-21T13:39:37.843Z,6.89
2023-03-21T13:43:37.108Z,5.06
2023-03-21T13:47:36.413Z,5.19
2023-03-21T13:51:38.529Z,4.14
2023-03-21T13:55:36.087Z,3.56
2023-03-21T13:59:35.876Z,4.39
2023-03-21T14:03:35.634Z,3.33
2023-03-21T14:07:35.738Z,3.30
2023-03-21T14:11:36.893Z,3.66
2023-03-21T14:15:40.796Z,3.38
2023-03-21T14:19:36.569Z,4.06
2023-03-21T14:23:36.514Z,3.89
2023-03-21T14:27:35.502Z,3.11
2023-03-21T14:31:35.577Z,3.03
2023-03-21T14:35:35.548Z,2.78
2023-03-21T14:39:35.363Z,2.48
2023-03-21T14:43:37.342Z,2.59
2023-03-21T14:47:35.493Z,2.57
2023-03-21T14:51:36.281Z,2.40
2023-03-21T14:55:35.403Z,3.31
2023-03-21T14:59:35.575Z,3.15
2023-03-21T15:03:36.354Z,3.61
2023-03-21T15:07:35.269Z,3.69
2023-03-21T15:11:35.260Z,3.98
2023-03-21T15:15:35.271Z,3.59
2023-03-21T15:19:35.667Z,2.99
2023-03-21T15:23:35.155Z,3.07
2023-03-21T15:27:35.027Z,3.22
2023-03-21T15:31:35.006Z,3.24
2023-03-21T15:35:35.121Z,2.97
2023-03-21T15:39:35.110Z,3.18
2023-03-21T15:43:36.089Z,3.15
2023-03-21T15:47:35.191Z,2.43
2023-03-21T15:51:35.387Z,2.59
2023-03-21T15:55:35.416Z,2.73
2023-03-21T15:59:35.530Z,2.37
2023-03-21T16:03:35.635Z,2.23
2023-03-21T16:07:35.851Z,2.04
2023-03-21T16:11:35.882Z,2.49
2023-03-21T16:15:36.190Z,2.36
2023-03-21T16:19:36.200Z,2.33
2023-03-21T16:23:36.205Z,2.49
2023-03-21T16:27:36.326Z,2.15
2023-03-21T16:31:36.532Z,2.44
2023-03-21T16:35:36.565Z,2.51
2023-03-21T16:39:36.688Z,2.44
2023-03-21T16:43:36.790Z,1.78
2023-03-21T16:47:37.007Z,1.84
2023-03-21T16:51:37.098Z,1.64
2023-03-21T16:55:37.269Z,1.83
2023-03-21T16:59:37.488Z,1.70
2023-03-21T17:03:37.619Z,2.14
2023-03-21T17:07:37.808Z,1.71
2023-03-21T17:11:38.023Z,1.78
2023-03-21T17:15:38.228Z,2.22
2023-03-21T17:19:38.473Z,1.90
2023-03-21T17:23:38.368Z,1.90
2023-03-21T17:27:38.386Z,2.34
2023-03-21T17:31:38.292Z,1.97
2023-03-21T17:35:38.512Z,2.33
2023-03-21T17:39:38.235Z,1.70
2023-03-21T17:43:38.222Z,2.00
2023-03-21T17:47:38.143Z,3.04
2023-03-21T17:51:38.150Z,1.99
2023-03-21T17:55:38.745Z,2.35
2023-03-21T17:59:38.109Z,2.45
2023-03-21T18:03:38.133Z,2.69
2023-03-21T18:08:07.924Z,2.38
2023-03-21T18:11:39.066Z,2.26
2023-03-21T18:15:38.558Z,2.46
2023-03-21T18:19:38.031Z,2.78
2023-03-21T18:23:38.027Z,2.35
2023-03-21T18:27:59.416Z,2.19
2023-03-21T18:31:38.983Z,2.55
2023-03-21T18:35:38.607Z,2.09
2023-03-21T18:39:38.199Z,1.93
2023-03-21T18:47:39.459Z,2.36
2023-03-21T18:51:38.258Z,2.17
2023-03-21T18:55:46.018Z,2.13
2023-03-21T18:59:39.341Z,2.43
2023-03-21T19:03:43.027Z,1.88
2023-03-21T19:07:38.137Z,1.88
2023-03-21T19:11:38.073Z,1.88
2023-03-21T19:15:38.327Z,1.94
2023-03-21T19:19:38.032Z,1.93
2023-03-21T19:24:07.860Z,2.20
2023-03-21T19:27:38.934Z,1.56
2023-03-21T19:31:38.012Z,2.10
2023-03-21T19:35:37.846Z,1.98
2023-03-21T19:39:37.811Z,2.23
2023-03-21T19:43:40.024Z,2.06
2023-03-21T19:47:37.857Z,2.09
2023-03-21T19:51:37.899Z,1.33
2023-03-21T19:55:37.841Z,1.58
2023-03-21T19:59:37.910Z,1.50
2023-03-21T20:03:38.050Z,1.87
2023-03-21T20:07:38.164Z,1.96
2023-03-21T20:11:37.888Z,2.10
2023-03-21T20:15:45.915Z,1.68
2023-03-21T20:19:38.901Z,1.98
2023-03-21T20:23:37.912Z,1.99
2023-03-21T20:27:39.194Z,1.86
2023-03-21T20:31:37.833Z,1.39
2023-03-21T20:36:27.653Z,1.93
2023-03-21T20:39:39.229Z,1.90
2023-03-21T20:44:31.529Z,1.45
2023-03-21T20:47:38.665Z,1.50
2023-03-21T20:55:38.568Z,2.50
2023-03-21T20:59:37.538Z,1.76
2023-03-21T21:03:37.529Z,1.52
2023-03-21T21:07:37.504Z,2.02
2023-03-21T21:12:05.732Z,1.88
2023-03-21T21:15:38.443Z,1.77
2023-03-21T21:19:37.317Z,1.46
2023-03-21T21:23:37.342Z,1.56
2023-03-21T21:27:37.295Z,1.77
2023-03-21T21:31:37.317Z,1.68
2023-03-21T21:35:37.465Z,1.77
2023-03-21T21:39:37.491Z,1.88
2023-03-21T21:43:37.611Z,1.50
2023-03-21T21:47:37.705Z,1.60
2023-03-21T21:51:37.817Z,1.73
2023-03-21T21:55:37.924Z,1.97
2023-03-21T21:59:38.084Z,1.56
2023-03-21T22:03:38.167Z,1.94
2023-03-21T22:07:38.341Z,1.39
2023-03-21T22:11:38.419Z,1.90
2023-03-21T22:15:39.268Z,1.38
2023-03-21T22:19:40.311Z,1.75
2023-03-21T22:23:38.798Z,1.63
2023-03-21T22:27:38.884Z,1.74
2023-03-21T22:31:39.145Z,1.51
2023-03-21T22:35:39.221Z,1.91
2023-03-21T22:39:39.407Z,1.59
2023-03-21T22:43:39.481Z,1.81
2023-03-21T22:47:39.682Z,1.82
2023-03-21T22:51:39.786Z,1.61
2023-03-21T22:55:39.959Z,1.86
2023-03-21T22:59:40.136Z,1.93
2023-03-21T23:03:40.268Z,1.90
2023-03-21T23:07:40.499Z,1.83
2023-03-21T23:11:40.564Z,2.01
2023-03-21T23:15:40.785Z,1.73
2023-03-21T23:19:41.235Z,1.55
2023-03-21T23:23:40.985Z,1.43
2023-03-21T23:27:41.137Z,1.70
2023-03-21T23:31:41.758Z,1.77
2023-03-21T23:35:41.491Z,2.00
2023-03-21T23:39:41.614Z,1.54
2023-03-21T23:43:41.769Z,1.62
2023-03-21T23:47:42.001Z,1.43
2023-03-21T23:51:42.104Z,1.62
2023-03-21T23:55:42.287Z,1.70
2023-03-21T23:59:42.780Z,1.70
